createdAt,value
2018-06-25T00:02:02.919Z,99647.71
2018-06-25T00:04:30.782Z,99647.89
2018-06-25T00:06:58.651Z,99643.71
2018-06-25T00:09:26.527Z,99645.91
2018-06-25T00:11:54.370Z,99641.95
2018-06-25T00:14:22.226Z,99644.88
2018-06-25T00:16:50.090Z,99649.92
2018-06-25T00:19:17.974Z,99649.37
2018-06-25T00:21:45.861Z,99646.05
2018-06-25T00:24:13.738Z,99638.95
2018-06-25T00:26:41.643Z,99638.52
2018-06-25T00:29:09.510Z,99634.28
2018-06-25T00:31:37.361Z,99641.09
2018-06-25T00:34:05.423Z,99644.63
2018-06-25T00:36:33.295Z,99641.83
2018-06-25T00:39:01.123Z,99637.19
2018-06-25T00:41:28.995Z,99635.20
2018-06-25T00:43:56.870Z,99637.85
2018-06-25T00:46:24.704Z,99634.59
2018-06-25T00:48:52.535Z,99635.04
2018-06-25T00:51:20.391Z,99636.41
2018-06-25T00:53:48.261Z,99640.08
2018-06-25T00:56:16.070Z,99643.00
2018-06-25T00:58:55.126Z,99641.09
2018-06-25T01:01:22.895Z,99638.91
2018-06-25T01:03:50.739Z,99633.38
2018-06-25T01:06:18.603Z,99635.13
2018-06-25T01:08:46.462Z,99635.63
2018-06-25T01:11:14.282Z,99635.18
2018-06-25T01:13:42.139Z,99640.19
2018-06-25T01:16:09.997Z,99637.57
2018-06-25T01:18:37.868Z,99634.79
2018-06-25T01:21:05.751Z,99630.47
2018-06-25T01:23:33.633Z,99639.83
2018-06-25T01:26:01.527Z,99633.14
2018-06-25T01:28:29.341Z,99638.20
2018-06-25T01:30:57.286Z,99644.33
2018-06-25T01:33:25.136Z,99637.75
2018-06-25T01:35:52.987Z,99641.80
2018-06-25T01:38:20.822Z,99648.62
2018-06-25T01:40:48.654Z,99649.13
2018-06-25T01:43:16.564Z,99646.00
2018-06-25T01:45:44.391Z,99644.36
2018-06-25T01:48:12.222Z,99643.47
2018-06-25T01:50:40.072Z,99642.78
2018-06-25T01:53:07.887Z,99641.92
2018-06-25T01:55:35.769Z,99646.16
2018-06-25T01:58:03.615Z,99642.34
2018-06-25T02:00:31.481Z,99640.39
2018-06-25T02:02:59.322Z,99652.28
2018-06-25T02:05:27.186Z,99656.31
2018-06-25T02:07:55.062Z,99652.53
2018-06-25T02:10:22.902Z,99652.49
2018-06-25T02:12:50.724Z,99658.06
2018-06-25T02:15:18.555Z,99649.47
2018-06-25T02:17:46.391Z,99655.08
2018-06-25T02:20:14.222Z,99655.84
2018-06-25T02:22:42.058Z,99654.22
2018-06-25T02:25:09.909Z,99656.91
2018-06-25T02:27:37.808Z,99659.05
2018-06-25T02:30:05.637Z,99659.55
2018-06-25T02:32:33.494Z,99659.23
2018-06-25T02:35:01.346Z,99663.78
2018-06-25T02:37:29.237Z,99660.59
2018-06-25T02:39:57.132Z,99662.41
2018-06-25T02:42:25.022Z,99665.00
2018-06-25T02:44:52.837Z,99671.41
2018-06-25T02:47:20.652Z,99668.50
2018-06-25T02:49:48.518Z,99676.17
2018-06-25T02:52:16.381Z,99679.16
2018-06-25T02:54:44.242Z,99678.66
2018-06-25T02:57:12.075Z,99677.67
2018-06-25T02:59:39.929Z,99684.28
2018-06-25T03:02:07.791Z,99684.61
2018-06-25T03:04:35.624Z,99687.47
2018-06-25T03:07:03.459Z,99689.30
2018-06-25T03:09:31.322Z,99683.78
2018-06-25T03:11:59.223Z,99673.27
2018-06-25T03:14:27.078Z,99674.61
2018-06-25T03:16:54.910Z,99678.38
2018-06-25T03:19:22.783Z,99676.58
2018-06-25T03:21:50.648Z,99672.73
2018-06-25T03:24:18.488Z,99682.30
2018-06-25T03:26:46.306Z,99680.20
2018-06-25T03:29:14.120Z,99678.05
2018-06-25T03:31:41.943Z,99671.80
2018-06-25T03:34:09.803Z,99678.95
2018-06-25T03:36:37.643Z,99684.11
2018-06-25T03:39:07.530Z,99681.87
2018-06-25T03:41:35.388Z,99682.89
2018-06-25T03:44:03.271Z,99681.95
2018-06-25T03:46:31.117Z,99680.66
2018-06-25T03:48:58.965Z,99679.09
2018-06-25T03:51:26.829Z,99680.08
2018-06-25T03:53:54.660Z,99686.39
2018-06-25T03:56:22.595Z,99678.05
2018-06-25T03:58:50.456Z,99680.89
2018-06-25T04:01:18.286Z,99681.52
2018-06-25T04:03:46.222Z,99678.91
2018-06-25T04:06:14.050Z,99687.56
2018-06-25T04:08:42.280Z,99689.67
2018-06-25T04:11:10.146Z,99693.09
2018-06-25T04:13:37.972Z,99695.91
2018-06-25T04:16:05.806Z,99696.87
2018-06-25T04:18:33.636Z,99697.58
2018-06-25T04:21:01.537Z,99704.80
2018-06-25T04:23:29.422Z,99703.10
2018-06-25T04:25:57.240Z,99699.68
2018-06-25T04:28:25.107Z,99701.54
2018-06-25T04:30:52.943Z,99703.63
2018-06-25T04:33:20.822Z,99701.23
2018-06-25T04:35:48.676Z,99693.00
2018-06-25T04:38:16.519Z,99706.42
2018-06-25T04:40:45.350Z,99701.94
2018-06-25T04:43:13.173Z,99700.55
2018-06-25T04:45:40.979Z,99704.56
2018-06-25T04:48:08.815Z,99691.90
2018-06-25T04:50:36.708Z,99677.41
2018-06-25T04:53:04.555Z,99682.56
2018-06-25T04:55:32.427Z,99676.16
2018-06-25T04:58:00.262Z,99670.27
2018-06-25T05:00:28.100Z,99669.73
2018-06-25T05:02:55.939Z,99667.28
2018-06-25T05:05:23.770Z,99680.16
2018-06-25T05:07:51.598Z,99680.83
2018-06-25T05:10:19.444Z,99681.61
2018-06-25T05:12:47.262Z,99681.05
2018-06-25T05:15:15.083Z,99679.14
2018-06-25T05:17:42.896Z,99676.02
2018-06-25T05:20:10.715Z,99662.84
2018-06-25T05:22:38.585Z,99663.40
2018-06-25T05:25:06.435Z,99656.34
2018-06-25T05:27:34.247Z,99658.48
2018-06-25T05:30:02.067Z,99669.75
2018-06-25T05:32:29.905Z,99679.42
2018-06-25T05:34:57.714Z,99675.02
2018-06-25T05:37:25.554Z,99676.34
2018-06-25T05:39:53.395Z,99677.65
2018-06-25T05:42:22.547Z,99681.23
2018-06-25T05:44:51.631Z,99698.29
2018-06-25T05:47:19.900Z,99706.00
2018-06-25T05:49:47.970Z,99715.22
2018-06-25T05:52:15.863Z,99717.52
2018-06-25T05:54:43.700Z,99723.34
2018-06-25T05:57:12.182Z,99727.05
2018-06-25T05:59:40.108Z,99727.84
2018-06-25T06:02:07.931Z,99723.58
2018-06-25T06:04:35.899Z,99740.19
2018-06-25T06:07:03.988Z,99735.02
2018-06-25T06:09:31.897Z,99732.86
2018-06-25T06:12:07.044Z,99714.50
2018-06-25T06:14:35.850Z,99712.60
2018-06-25T06:17:05.890Z,99701.38
2018-06-25T06:19:36.316Z,99709.45
2018-06-25T06:22:04.634Z,99717.23
2018-06-25T06:24:32.966Z,99716.91
2018-06-25T06:27:02.206Z,99709.09
2018-06-25T06:29:33.426Z,99705.87
2018-06-25T06:32:01.298Z,99701.08
2018-06-25T06:34:29.451Z,99709.38
2018-06-25T06:36:57.329Z,99711.34
2018-06-25T06:39:25.186Z,99708.21
2018-06-25T06:41:53.011Z,99701.53
2018-06-25T06:44:20.867Z,99703.12
2018-06-25T06:46:48.780Z,99706.20
2018-06-25T06:49:16.687Z,99709.29
2018-06-25T06:51:44.544Z,99707.85
2018-06-25T06:54:12.408Z,99701.81
2018-06-25T06:56:40.304Z,99693.91
2018-06-25T06:59:08.107Z,99700.01
2018-06-25T07:01:35.910Z,99704.81
2018-06-25T07:04:03.810Z,99702.42
2018-06-25T07:06:31.661Z,99697.78
2018-06-25T07:08:59.541Z,99697.55
2018-06-25T07:11:27.357Z,99690.89
2018-06-25T07:13:55.197Z,99693.88
2018-06-25T07:16:23.017Z,99683.91
2018-06-25T07:18:50.850Z,99684.83
2018-06-25T07:21:18.739Z,99696.73
2018-06-25T07:23:46.587Z,99688.59
2018-06-25T07:26:19.874Z,99680.52
2018-06-25T07:28:47.762Z,99685.55
2018-06-25T07:31:15.600Z,99692.73
2018-06-25T07:33:43.642Z,99692.31
2018-06-25T07:36:11.445Z,99688.87
2018-06-25T07:38:39.501Z,99684.65
2018-06-25T07:41:07.328Z,99691.56
2018-06-25T07:43:35.253Z,99694.04
2018-06-25T07:46:03.085Z,99684.47
2018-06-25T07:48:30.892Z,99680.02
2018-06-25T07:50:58.747Z,99682.73
2018-06-25T07:53:26.666Z,99687.32
2018-06-25T07:55:54.443Z,99687.50
2018-06-25T07:58:22.261Z,99688.70
2018-06-25T08:00:50.069Z,99682.52
2018-06-25T08:03:17.872Z,99683.95
2018-06-25T08:05:45.670Z,99680.15
2018-06-25T08:08:13.499Z,99679.53
2018-06-25T08:10:41.368Z,99680.48
2018-06-25T08:13:09.221Z,99674.09
2018-06-25T08:15:37.102Z,99674.99
2018-06-25T08:18:05.215Z,99671.84
2018-06-25T08:20:33.060Z,99670.52
2018-06-25T08:23:00.945Z,99670.10
2018-06-25T08:25:28.810Z,99668.22
2018-06-25T08:27:56.674Z,99672.80
2018-06-25T08:30:24.531Z,99673.45
2018-06-25T08:32:52.994Z,99670.44
2018-06-25T08:35:20.838Z,99672.73
2018-06-25T08:37:48.899Z,99660.13
2018-06-25T08:40:17.056Z,99656.38
2018-06-25T08:42:44.910Z,99666.01
2018-06-25T08:45:13.505Z,99663.34
2018-06-25T08:47:41.408Z,99660.63
2018-06-25T08:50:09.265Z,99666.03
2018-06-25T08:52:37.084Z,99660.29
2018-06-25T08:55:04.956Z,99659.84
2018-06-25T08:57:32.845Z,99645.79
2018-06-25T09:00:00.753Z,99654.41
2018-06-25T09:02:28.621Z,99656.05
2018-06-25T09:04:56.454Z,99644.88
2018-06-25T09:07:24.286Z,99650.28
2018-06-25T09:09:52.148Z,99640.52
2018-06-25T09:12:20.059Z,99646.48
2018-06-25T09:14:47.917Z,99645.94
2018-06-25T09:17:15.736Z,99646.45
2018-06-25T09:19:43.619Z,99644.62
2018-06-25T09:22:11.489Z,99643.02
2018-06-25T09:24:39.312Z,99646.89
2018-06-25T09:27:07.160Z,99644.84
2018-06-25T09:29:34.976Z,99644.84
2018-06-25T09:32:02.837Z,99635.15
2018-06-25T09:34:36.148Z,99643.65
2018-06-25T09:37:04.034Z,99645.94
2018-06-25T09:39:31.862Z,99644.53
2018-06-25T09:41:59.694Z,99648.94
2018-06-25T09:44:27.530Z,99649.67
2018-06-25T09:46:55.370Z,99639.88
2018-06-25T09:49:23.264Z,99644.61
2018-06-25T09:51:51.022Z,99644.61
2018-06-25T09:54:18.875Z,99634.84
2018-06-25T09:56:46.682Z,99632.03
2018-06-25T09:59:14.586Z,99634.13
2018-06-25T10:01:42.555Z,99634.44
2018-06-25T10:04:10.395Z,99632.34
2018-06-25T10:06:38.287Z,99633.78
2018-06-25T10:09:09.150Z,99628.73
2018-06-25T10:11:37.405Z,99627.25
2018-06-25T10:14:05.532Z,99630.55
2018-06-25T10:16:33.404Z,99632.16
2018-06-25T10:19:01.314Z,99624.65
2018-06-25T10:21:29.160Z,99618.22
2018-06-25T10:23:56.987Z,99620.11
2018-06-25T10:26:24.797Z,99617.70
2018-06-25T10:28:52.609Z,99615.25
2018-06-25T10:31:20.454Z,99615.44
2018-06-25T10:33:48.695Z,99611.02
2018-06-25T10:36:16.535Z,99616.21
2018-06-25T10:38:44.386Z,99609.02
2018-06-25T10:41:12.485Z,99601.80
2018-06-25T10:43:40.393Z,99601.94
2018-06-25T10:46:08.305Z,99599.86
2018-06-25T10:48:36.124Z,99599.72
2018-06-25T10:51:03.942Z,99602.40
2018-06-25T10:53:31.759Z,99597.13
2018-06-25T10:55:59.607Z,99599.23
2018-06-25T10:58:27.418Z,99589.79
2018-06-25T11:00:55.238Z,99591.34
2018-06-25T11:03:23.078Z,99588.80
2018-06-25T11:05:50.973Z,99593.34
2018-06-25T11:08:18.854Z,99593.22
2018-06-25T11:10:46.708Z,99594.23
2018-06-25T11:13:14.525Z,99595.94
2018-06-25T11:15:42.387Z,99593.87
2018-06-25T11:18:10.209Z,99587.44
2018-06-25T11:20:38.071Z,99591.95
2018-06-25T11:23:05.906Z,99580.25
2018-06-25T11:25:33.745Z,99580.54
2018-06-25T11:28:01.590Z,99578.27
2018-06-25T11:30:29.459Z,99584.98
2018-06-25T11:32:57.321Z,99593.76
2018-06-25T11:35:25.170Z,99594.98
2018-06-25T11:37:53.003Z,99592.70
2018-06-25T11:40:20.850Z,99593.23
2018-06-25T11:42:48.693Z,99586.32
2018-06-25T11:45:16.541Z,99585.25
2018-06-25T11:47:44.375Z,99588.27
2018-06-25T11:50:12.216Z,99584.91
2018-06-25T11:52:40.091Z,99580.78
2018-06-25T11:55:08.026Z,99576.58
2018-06-25T11:57:36.051Z,99583.69
2018-06-25T12:00:04.549Z,99578.31
2018-06-25T12:02:32.470Z,99580.48
2018-06-25T12:05:00.325Z,99572.73
2018-06-25T12:07:28.130Z,99577.05
2018-06-25T12:09:55.961Z,99572.58
2018-06-25T12:12:23.790Z,99575.56
2018-06-25T12:14:51.646Z,99569.91
2018-06-25T12:17:19.481Z,99564.54
2018-06-25T12:19:47.295Z,99564.34
2018-06-25T12:22:15.154Z,99570.70
2018-06-25T12:24:43.003Z,99563.06
2018-06-25T12:27:10.812Z,99561.22
2018-06-25T12:29:38.629Z,99559.05
2018-06-25T12:32:06.749Z,99566.98
2018-06-25T12:34:34.573Z,99566.73
2018-06-25T12:37:02.426Z,99559.67
2018-06-25T12:39:30.228Z,99556.29
2018-06-25T12:41:58.038Z,99559.05
2018-06-25T12:44:25.862Z,99556.33
2018-06-25T12:46:53.679Z,99555.08
2018-06-25T12:49:21.515Z,99555.19
2018-06-25T12:51:49.390Z,99550.95
2018-06-25T12:54:17.279Z,99554.20
2018-06-25T12:56:45.103Z,99546.81
2018-06-25T12:59:12.936Z,99546.15
2018-06-25T13:01:40.794Z,99540.44
2018-06-25T13:04:08.610Z,99549.75
2018-06-25T13:06:36.419Z,99537.95
2018-06-25T13:09:08.188Z,99534.23
2018-06-25T13:11:36.221Z,99531.55
2018-06-25T13:14:04.121Z,99535.53
2018-06-25T13:16:31.954Z,99534.56
2018-06-25T13:18:59.798Z,99537.17
2018-06-25T13:21:27.635Z,99543.30
2018-06-25T13:23:55.466Z,99535.56
2018-06-25T13:26:23.457Z,99530.28
2018-06-25T13:28:51.267Z,99533.25
2018-06-25T13:31:19.265Z,99531.89
2018-06-25T13:33:47.182Z,99530.59
2018-06-25T13:36:21.528Z,99522.92
2018-06-25T13:38:49.398Z,99524.57
2018-06-25T13:41:17.232Z,99529.37
2018-06-25T13:43:45.074Z,99518.45
2018-06-25T13:46:12.917Z,99519.14
2018-06-25T13:48:40.727Z,99518.25
2018-06-25T13:51:08.555Z,99512.64
2018-06-25T13:53:36.420Z,99511.69
2018-06-25T13:56:04.257Z,99515.03
2018-06-25T13:58:32.097Z,99507.80
2018-06-25T14:00:59.956Z,99507.45
2018-06-25T14:03:27.786Z,99506.33
2018-06-25T14:05:55.592Z,99505.09
2018-06-25T14:08:23.428Z,99502.11
2018-06-25T14:10:51.303Z,99500.60
2018-06-25T14:13:19.165Z,99502.72
2018-06-25T14:15:47.043Z,99497.14
2018-06-25T14:18:14.880Z,99507.02
2018-06-25T14:20:42.762Z,99497.04
2018-06-25T14:23:10.641Z,99495.48
2018-06-25T14:25:44.000Z,99500.34
2018-06-25T14:28:17.348Z,99503.92
2018-06-25T14:30:50.590Z,99506.44
2018-06-25T14:33:22.898Z,99510.42
2018-06-25T14:35:50.743Z,99504.59
2018-06-25T14:38:18.608Z,99497.00
2018-06-25T14:40:46.469Z,99495.34
2018-06-25T14:43:14.327Z,99492.30
2018-06-25T14:45:42.199Z,99510.28
2018-06-25T14:48:10.023Z,99503.25
2018-06-25T14:50:37.854Z,99493.93
2018-06-25T14:53:05.695Z,99498.98
2018-06-25T14:55:33.669Z,99493.47
2018-06-25T14:58:01.579Z,99484.45
2018-06-25T15:00:29.448Z,99488.83
2018-06-25T15:02:57.321Z,99491.55
2018-06-25T15:05:25.227Z,99487.80
2018-06-25T15:08:25.847Z,99486.06
2018-06-25T15:10:54.035Z,99486.52
2018-06-25T15:13:21.875Z,99495.04
2018-06-25T15:15:49.725Z,99493.89
2018-06-25T15:18:17.604Z,99503.61
2018-06-25T15:23:25.330Z,99503.22
2018-06-25T15:25:53.201Z,99494.78
2018-06-25T15:28:21.077Z,99497.87
2018-06-25T15:30:48.941Z,99492.87
2018-06-25T15:33:16.769Z,99495.33
2018-06-25T15:35:44.594Z,99491.17
2018-06-25T15:38:12.517Z,99495.14
2018-06-25T15:40:40.336Z,99482.05
2018-06-25T15:43:08.204Z,99484.80
2018-06-25T15:45:36.025Z,99490.71
2018-06-25T15:48:03.948Z,99482.17
2018-06-25T15:50:31.772Z,99487.39
2018-06-25T15:52:59.615Z,99486.61
2018-06-25T15:55:27.476Z,99493.81
2018-06-25T15:57:55.456Z,99486.59
2018-06-25T16:00:23.392Z,99487.78
2018-06-25T16:02:51.332Z,99488.88
2018-06-25T16:05:19.199Z,99495.16
2018-06-25T16:07:47.076Z,99493.33
2018-06-25T16:10:15.066Z,99490.25
2018-06-25T16:12:42.958Z,99489.81
2018-06-25T16:15:10.823Z,99491.88
2018-06-25T16:17:38.678Z,99492.45
2018-06-25T16:20:06.609Z,99493.03
2018-06-25T16:22:34.397Z,99497.61
2018-06-25T16:25:02.221Z,99496.49
2018-06-25T16:27:30.092Z,99497.24
2018-06-25T16:29:57.906Z,99496.20
2018-06-25T16:32:25.755Z,99502.38
2018-06-25T16:34:53.578Z,99500.38
2018-06-25T16:37:21.456Z,99503.82
2018-06-25T16:39:49.303Z,99499.83
2018-06-25T16:42:17.147Z,99497.77
2018-06-25T16:44:45.011Z,99504.47
2018-06-25T16:47:12.845Z,99501.76
2018-06-25T16:49:40.675Z,99493.98
2018-06-25T16:52:08.491Z,99500.41
2018-06-25T16:54:36.359Z,99509.09
2018-06-25T16:57:04.213Z,99502.97
2018-06-25T16:59:32.092Z,99505.90
2018-06-25T17:01:59.918Z,99499.94
2018-06-25T17:04:28.018Z,99502.39
2018-06-25T17:06:55.853Z,99504.31
2018-06-25T17:09:23.736Z,99505.98
2018-06-25T17:11:51.547Z,99508.83
2018-06-25T17:14:19.382Z,99509.47
2018-06-25T17:16:47.274Z,99512.02
2018-06-25T17:19:15.086Z,99507.88
2018-06-25T17:21:42.895Z,99511.07
2018-06-25T17:24:10.723Z,99511.95
2018-06-25T17:26:38.551Z,99516.37
2018-06-25T17:29:06.677Z,99517.70
2018-06-25T17:31:34.503Z,99515.95
2018-06-25T17:34:02.394Z,99520.20
2018-06-25T17:36:30.744Z,99521.79
2018-06-25T17:38:58.889Z,99527.73
2018-06-25T17:41:26.737Z,99536.54
2018-06-25T17:43:54.787Z,99541.03
2018-06-25T17:46:22.646Z,99544.42
2018-06-25T17:48:50.634Z,99549.76
2018-06-25T17:51:18.451Z,99552.26
2018-06-25T17:53:46.337Z,99548.74
2018-06-25T17:56:14.180Z,99547.62
2018-06-25T17:58:42.026Z,99537.98
2018-06-25T18:01:09.881Z,99533.59
2018-06-25T18:03:37.780Z,99543.25
2018-06-25T18:06:05.748Z,99547.66
2018-06-25T18:08:33.600Z,99550.39
2018-06-25T18:11:01.796Z,99553.96
2018-06-25T18:13:29.649Z,99556.38
2018-06-25T18:15:57.491Z,99551.39
2018-06-25T18:18:25.331Z,99555.75
2018-06-25T18:20:54.346Z,99550.25
2018-06-25T18:23:22.520Z,99560.13
2018-06-25T18:25:52.733Z,99561.21
2018-06-25T18:28:23.251Z,99566.12
2018-06-25T18:30:55.583Z,99570.47
2018-06-25T18:33:24.172Z,99562.47
2018-06-25T18:35:54.118Z,99567.03
2018-06-25T18:38:25.103Z,99570.77
2018-06-25T18:40:55.694Z,99581.41
2018-06-25T18:43:25.127Z,99577.51
2018-06-25T18:45:55.924Z,99572.23
2018-06-25T18:48:26.408Z,99575.79
2018-06-25T18:50:56.435Z,99587.30
2018-06-25T18:53:27.018Z,99579.55
2018-06-25T18:55:55.171Z,99583.12
2018-06-25T18:58:23.850Z,99581.75
2018-06-25T19:00:51.821Z,99580.01
2018-06-25T19:03:20.160Z,99581.08
2018-06-25T19:05:48.554Z,99581.37
2018-06-25T19:08:17.378Z,99580.95
2018-06-25T19:10:46.530Z,99583.58
2018-06-25T19:13:15.907Z,99585.12
2018-06-25T19:15:44.000Z,99587.80
2018-06-25T19:18:11.852Z,99599.02
2018-06-25T19:20:39.710Z,99596.59
2018-06-25T19:23:07.534Z,99606.80
2018-06-25T19:25:36.311Z,99610.11
2018-06-25T19:28:05.047Z,99605.25
2018-06-25T19:30:35.820Z,99608.27
2018-06-25T19:33:05.451Z,99611.06
2018-06-25T19:35:36.294Z,99614.06
2018-06-25T19:38:07.810Z,99619.95
2018-06-25T19:40:37.926Z,99630.55
2018-06-25T19:43:05.885Z,99628.31
2018-06-25T19:45:35.333Z,99632.80
2018-06-25T19:48:06.442Z,99632.88
2018-06-25T19:50:36.650Z,99636.81
2018-06-25T19:53:07.605Z,99632.56
2018-06-25T19:55:39.669Z,99634.73
2018-06-25T19:58:09.398Z,99641.30
2018-06-25T20:00:37.629Z,99643.16
2018-06-25T20:03:05.489Z,99648.64
2018-06-25T20:05:33.350Z,99647.19
2018-06-25T20:08:01.157Z,99642.46
2018-06-25T20:10:29.027Z,99648.73
2018-06-25T20:12:57.227Z,99651.08
2018-06-25T20:15:25.088Z,99651.69
2018-06-25T20:17:53.367Z,99657.16
2018-06-25T20:20:21.181Z,99655.00
2018-06-25T20:22:49.018Z,99655.78
2018-06-25T20:25:17.005Z,99659.63
2018-06-25T20:27:44.975Z,99660.81
2018-06-25T20:30:12.833Z,99657.31
2018-06-25T20:32:40.740Z,99656.63
2018-06-25T20:35:09.045Z,99658.84
2018-06-25T20:37:36.909Z,99657.69
2018-06-25T20:40:04.814Z,99659.01
2018-06-25T20:42:32.736Z,99660.58
2018-06-25T20:45:00.591Z,99661.70
2018-06-25T20:47:28.487Z,99659.45
2018-06-25T20:49:56.398Z,99658.53
2018-06-25T20:52:24.277Z,99664.27
2018-06-25T20:54:52.161Z,99670.46
2018-06-25T20:57:20.066Z,99665.11
2018-06-25T20:59:47.938Z,99665.25
2018-06-25T21:02:15.811Z,99669.98
2018-06-25T21:04:43.750Z,99666.95
2018-06-25T21:07:11.716Z,99665.74
2018-06-25T21:09:39.568Z,99662.76
2018-06-25T21:12:07.447Z,99666.13
2018-06-25T21:14:35.311Z,99666.13
2018-06-25T21:17:03.499Z,99656.84
2018-06-25T21:19:31.664Z,99669.69
2018-06-25T21:21:59.566Z,99665.80
2018-06-25T21:24:27.476Z,99667.31
2018-06-25T21:26:55.366Z,99665.44
2018-06-25T21:29:23.264Z,99657.75
2018-06-25T21:31:51.164Z,99665.74
2018-06-25T21:34:19.068Z,99662.56
2018-06-25T21:36:46.931Z,99662.13
2018-06-25T21:39:14.853Z,99655.25
2018-06-25T21:41:42.762Z,99650.02
2018-06-25T21:44:10.653Z,99650.37
2018-06-25T21:46:38.494Z,99650.12
2018-06-25T21:49:06.366Z,99642.33
2018-06-25T21:51:34.231Z,99643.95
2018-06-25T21:54:02.134Z,99638.97
2018-06-25T21:56:30.076Z,99643.27
2018-06-25T21:58:57.931Z,99646.98
2018-06-25T22:01:25.799Z,99641.73
2018-06-25T22:03:53.739Z,99638.48
2018-06-25T22:06:21.682Z,99637.42
2018-06-25T22:08:49.575Z,99638.48
2018-06-25T22:11:17.425Z,99634.50
2018-06-25T22:13:45.286Z,99633.64
2018-06-25T22:16:13.168Z,99638.21
2018-06-25T22:18:41.048Z,99633.73
2018-06-25T22:21:08.995Z,99633.37
2018-06-25T22:23:36.844Z,99628.89
2018-06-25T22:26:05.287Z,99627.33
2018-06-25T22:28:33.159Z,99622.09
2018-06-25T22:31:01.033Z,99632.86
2018-06-25T22:33:28.934Z,99630.78
2018-06-25T22:35:56.833Z,99631.44
2018-06-25T22:38:24.685Z,99632.34
2018-06-25T22:40:52.573Z,99628.50
2018-06-25T22:43:20.468Z,99629.80
2018-06-25T22:45:48.292Z,99627.36
2018-06-25T22:48:16.221Z,99625.13
2018-06-25T22:50:44.093Z,99620.13
2018-06-25T22:53:11.934Z,99624.47
2018-06-25T22:55:39.813Z,99622.58
2018-06-25T22:58:07.669Z,99626.82
2018-06-25T23:00:35.607Z,99627.00
2018-06-25T23:03:03.534Z,99624.00
2018-06-25T23:05:31.444Z,99629.27
2018-06-25T23:07:59.298Z,99626.82
2018-06-25T23:10:27.151Z,99622.91
2018-06-25T23:12:55.124Z,99619.73
2018-06-25T23:15:22.969Z,99615.14
2018-06-25T23:17:50.834Z,99608.70
2018-06-25T23:20:18.687Z,99608.58
2018-06-25T23:22:51.685Z,99604.92
2018-06-25T23:25:19.579Z,99600.05
2018-06-25T23:27:47.426Z,99598.47
2018-06-25T23:30:15.324Z,99592.61
2018-06-25T23:32:43.222Z,99593.48
2018-06-25T23:35:11.086Z,99602.23
2018-06-25T23:37:38.986Z,99602.05
2018-06-25T23:40:06.894Z,99593.68
2018-06-25T23:42:34.773Z,99595.55
2018-06-25T23:45:02.715Z,99595.09
2018-06-25T23:47:30.576Z,99584.45
2018-06-25T23:49:58.452Z,99584.76
2018-06-25T23:52:26.375Z,99585.28
2018-06-25T23:54:54.257Z,99577.64
2018-06-25T23:57:22.123Z,99575.52
2018-06-25T23:59:49.970Z,99578.48
